Time,TemperatureF,DewpointF,PressureIn,WindDirection,WindDirectionDegrees,WindSpeedMPH,WindSpeedGustMPH,Humidity,HourlyPrecipIn,Conditions,Clouds,dailyrainin,SoftwareType,DateUTC
2013-08-24 00:01:00,70.7,68.3,30.08,NE,49,3.0,5.0,92,0.00,,---,0.00,VWS V14.01,2013-08-24 04:01:00,
2013-08-24 00:06:00,70.6,68.2,30.08,NE,39,2.0,3.0,92,0.00,,---,0.00,VWS V14.01,2013-08-24 04:06:00,
2013-08-24 00:11:00,70.5,68.1,30.08,NE,42,3.0,5.0,92,0.00,,---,0.00,VWS V14.01,2013-08-24 04:11:00,
2013-08-24 00:16:00,70.4,68.3,30.08,NNE,29,2.0,2.0,93,0.00,,---,0.00,VWS V14.01,2013-08-24 04:16:00,
2013-08-24 00:21:00,70.3,68.2,30.09,NNE,32,5.0,5.0,93,0.00,,---,0.00,VWS V14.01,2013-08-24 04:21:00,
2013-08-24 00:26:00,70.2,68.1,30.09,NNE,32,3.0,4.0,93,0.00,,---,0.00,VWS V14.01,2013-08-24 04:26:00,
2013-08-24 00:31:00,70.1,67.7,30.09,NE,43,5.0,6.0,92,0.00,,---,0.00,VWS V14.01,2013-08-24 04:31:00,
2013-08-24 00:36:00,69.9,67.5,30.10,NE,36,3.0,4.0,92,0.00,,---,0.00,VWS V14.01,2013-08-24 04:36:00,
2013-08-24 00:41:00,69.9,67.5,30.10,NNE,16,6.0,6.0,92,0.00,,---,0.00,VWS V14.01,2013-08-24 04:41:00,
2013-08-24 00:46:00,69.8,67.4,30.10,NE,47,4.0,5.0,92,0.00,,---,0.00,VWS V14.01,2013-08-24 04:46:00,
2013-08-24 00:51:00,69.7,67.3,30.10,ENE,60,5.0,5.0,92,0.00,,---,0.00,VWS V14.01,2013-08-24 04:51:00,
2013-08-24 00:56:00,69.6,67.2,30.10,NE,36,4.0,4.0,92,0.00,,---,0.00,VWS V14.01,2013-08-24 04:56:00,
2013-08-24 01:01:00,69.5,67.1,30.10,NE,53,5.0,6.0,92,0.00,,---,0.00,VWS V14.01,2013-08-24 05:01:00,
2013-08-24 01:06:00,69.4,66.7,30.10,NE,49,4.0,6.0,91,0.00,,---,0.00,VWS V14.01,2013-08-24 05:06:00,
2013-08-24 01:11:00,69.4,67.0,30.10,NNE,29,2.0,3.0,92,0.00,,---,0.00,VWS V14.01,2013-08-24 05:11:00,
2013-08-24 01:16:00,69.4,66.7,30.11,NNE,28,3.0,3.0,91,0.00,,---,0.00,VWS V14.01,2013-08-24 05:16:00,
2013-08-24 01:21:00,69.3,66.6,30.11,NE,42,3.0,8.0,91,0.00,,---,0.00,VWS V14.01,2013-08-24 05:21:00,
2013-08-24 01:26:00,69.3,66.6,30.11,NE,53,5.0,5.0,91,0.00,,---,0.00,VWS V14.01,2013-08-24 05:26:00,
2013-08-24 01:31:00,69.2,66.5,30.11,NE,34,3.0,7.0,91,0.00,,---,0.00,VWS V14.01,2013-08-24 05:31:00,
2013-08-24 01:36:00,69.2,66.5,30.12,NE,46,4.0,5.0,91,0.00,,---,0.00,VWS V14.01,2013-08-24 05:36:00,
2013-08-24 01:41:00,69.2,66.5,30.11,NNE,33,4.0,4.0,91,0.00,,---,0.00,VWS V14.01,2013-08-24 05:41:00,
2013-08-24 01:46:00,69.1,66.4,30.11,NE,52,7.0,7.0,91,0.00,,---,0.00,VWS V14.01,2013-08-24 05:46:00,
2013-08-24 01:51:00,69.0,66.3,30.11,NE,51,5.0,7.0,91,0.00,,---,0.00,VWS V14.01,2013-08-24 05:51:00,
2013-08-24 01:56:00,68.9,66.5,30.11,NE,39,4.0,5.0,92,0.00,,---,0.00,VWS V14.01,2013-08-24 05:56:00,
2013-08-24 02:01:00,68.7,66.3,30.11,ENE,61,3.0,4.0,92,0.00,,---,0.00,VWS V14.01,2013-08-24 06:01:00,
2013-08-24 02:06:00,68.6,66.2,30.12,ENE,57,7.0,7.0,92,0.00,,---,0.00,VWS V14.01,2013-08-24 06:06:00,
2013-08-24 02:11:00,68.7,66.3,30.12,ENE,64,5.0,8.0,92,0.00,,---,0.00,VWS V14.01,2013-08-24 06:11:00,
2013-08-24 02:15:00,68.7,66.0,30.11,ENE,58,5.0,6.0,91,0.00,,---,0.00,VWS V14.01,2013-08-24 06:15:00,
2013-08-24 02:20:00,68.7,65.7,30.12,ENE,57,5.0,7.0,90,0.00,,---,0.00,VWS V14.01,2013-08-24 06:20:00,
2013-08-24 02:25:00,68.8,65.4,30.12,NE,53,5.0,7.0,89,0.00,,---,0.00,VWS V14.01,2013-08-24 06:25:00,
2013-08-24 02:30:00,68.8,65.4,30.12,ENE,66,5.0,6.0,89,0.00,,---,0.00,VWS V14.01,2013-08-24 06:30:00,
2013-08-24 02:35:00,68.9,64.9,30.12,ENE,67,7.0,10.0,87,0.00,,---,0.00,VWS V14.01,2013-08-24 06:35:00,
2013-08-24 02:40:00,69.0,64.6,30.12,ENE,60,4.0,9.0,86,0.00,,---,0.00,VWS V14.01,2013-08-24 06:40:00,
2013-08-24 02:45:00,69.1,64.7,30.12,NE,42,4.0,7.0,86,0.00,,---,0.00,VWS V14.01,2013-08-24 06:45:00,
2013-08-24 02:50:00,69.1,64.7,30.12,ENE,65,10.0,10.0,86,0.00,,---,0.00,VWS V14.01,2013-08-24 06:50:00,
2013-08-24 02:55:00,69.1,64.7,30.12,ENE,57,5.0,5.0,86,0.00,,---,0.00,VWS V14.01,2013-08-24 06:55:00,
2013-08-24 03:00:00,69.1,64.4,30.12,ENE,57,3.0,5.0,85,0.00,,---,0.00,VWS V14.01,2013-08-24 07:00:00,
2013-08-24 03:05:00,69.1,64.4,30.13,NE,34,4.0,8.0,85,0.00,,---,0.00,VWS V14.01,2013-08-24 07:05:00,
2013-08-24 03:10:00,69.2,64.5,30.12,NE,51,4.0,6.0,85,0.00,,---,0.00,VWS V14.01,2013-08-24 07:10:00,
2013-08-24 03:15:00,69.1,64.4,30.12,NE,51,3.0,4.0,85,0.00,,---,0.00,VWS V14.01,2013-08-24 07:15:00,
2013-08-24 03:20:00,69.0,64.3,30.12,NE,47,5.0,6.0,85,0.00,,---,0.00,VWS V14.01,2013-08-24 07:20:00,
2013-08-24 03:25:00,68.9,64.2,30.12,ENE,63,4.0,4.0,85,0.00,,---,0.00,VWS V14.01,2013-08-24 07:25:00,
2013-08-24 03:30:00,68.8,64.1,30.12,ENE,57,2.0,5.0,85,0.00,,---,0.00,VWS V14.01,2013-08-24 07:30:00,
2013-08-24 03:35:00,68.7,64.0,30.12,NE,51,6.0,7.0,85,0.00,,---,0.00,VWS V14.01,2013-08-24 07:35:00,
2013-08-24 03:40:00,68.6,63.9,30.12,ENE,57,4.0,6.0,85,0.00,,---,0.00,VWS V14.01,2013-08-24 07:40:00,
2013-08-24 03:45:00,68.4,63.7,30.12,NE,55,3.0,4.0,85,0.00,,---,0.00,VWS V14.01,2013-08-24 07:45:00,
2013-08-24 03:50:00,68.3,63.6,30.12,NE,47,4.0,5.0,85,0.00,,---,0.00,VWS V14.01,2013-08-24 07:50:00,
2013-08-24 03:55:00,68.1,63.4,30.12,ENE,68,5.0,8.0,85,0.00,,---,0.00,VWS V14.01,2013-08-24 07:55:00,
2013-08-24 04:00:00,68.0,63.7,30.12,ENE,58,3.0,4.0,86,0.00,,---,0.00,VWS V14.01,2013-08-24 08:00:00,
2013-08-24 04:05:00,67.9,63.6,30.12,NE,48,4.0,4.0,86,0.00,,---,0.00,VWS V14.01,2013-08-24 08:05:00,
2013-08-24 04:10:00,67.8,63.5,30.12,ENE,59,3.0,3.0,86,0.00,,---,0.00,VWS V14.01,2013-08-24 08:10:00,
2013-08-24 04:15:00,67.7,63.4,30.13,ENE,63,5.0,5.0,86,0.00,,---,0.00,VWS V14.01,2013-08-24 08:15:00,
2013-08-24 04:20:00,67.6,63.3,30.13,ENE,57,7.0,8.0,86,0.00,,---,0.00,VWS V14.01,2013-08-24 08:20:00,
2013-08-24 04:25:00,67.6,63.3,30.13,NE,55,4.0,5.0,86,0.00,,---,0.00,VWS V14.01,2013-08-24 08:25:00,
2013-08-24 04:30:00,67.6,63.3,30.14,ENE,63,4.0,4.0,86,0.00,,---,0.00,VWS V14.01,2013-08-24 08:30:00,
2013-08-24 04:35:00,67.7,63.4,30.14,ENE,62,2.0,3.0,86,0.00,,---,0.00,VWS V14.01,2013-08-24 08:35:00,
2013-08-24 04:40:00,67.7,63.4,30.14,ENE,57,3.0,3.0,86,0.00,,---,0.00,VWS V14.01,2013-08-24 08:40:00,
2013-08-24 04:45:00,67.7,63.4,30.14,ENE,57,3.0,4.0,86,0.00,,---,0.00,VWS V14.01,2013-08-24 08:45:00,
2013-08-24 04:50:00,67.8,63.5,30.14,NE,55,4.0,4.0,86,0.00,,---,0.00,VWS V14.01,2013-08-24 08:50:00,
2013-08-24 04:55:00,67.7,63.4,30.14,ENE,57,3.0,3.0,86,0.00,,---,0.00,VWS V14.01,2013-08-24 08:55:00,
2013-08-24 05:00:00,67.7,63.4,30.14,NE,54,3.0,3.0,86,0.00,,---,0.00,VWS V14.01,2013-08-24 09:00:00,
2013-08-24 05:05:00,67.5,63.2,30.15,ENE,59,3.0,4.0,86,0.00,,---,0.00,VWS V14.01,2013-08-24 09:05:00,
2013-08-24 05:10:00,67.4,63.4,30.15,ENE,61,2.0,3.0,87,0.00,,---,0.00,VWS V14.01,2013-08-24 09:10:00,
2013-08-24 05:15:00,67.3,63.3,30.15,ENE,61,2.0,2.0,87,0.00,,---,0.00,VWS V14.01,2013-08-24 09:15:00,
2013-08-24 05:20:00,67.2,63.2,30.15,NE,47,3.0,4.0,87,0.00,,---,0.00,VWS V14.01,2013-08-24 09:20:00,
2013-08-24 05:25:00,67.0,63.3,30.15,NE,42,2.0,2.0,88,0.00,,---,0.00,VWS V14.01,2013-08-24 09:25:00,
2013-08-24 05:30:00,66.9,63.2,30.16,NE,42,2.0,2.0,88,0.00,,---,0.00,VWS V14.01,2013-08-24 09:30:00,
2013-08-24 05:35:00,66.8,63.1,30.16,NE,48,4.0,4.0,88,0.00,,---,0.00,VWS V14.01,2013-08-24 09:35:00,
2013-08-24 05:40:00,66.7,63.0,30.16,NE,50,5.0,5.0,88,0.00,,---,0.00,VWS V14.01,2013-08-24 09:40:00,
2013-08-24 05:45:00,66.6,62.9,30.17,NE,47,4.0,4.0,88,0.00,,---,0.00,VWS V14.01,2013-08-24 09:45:00,
2013-08-24 05:50:00,66.6,62.9,30.17,ENE,70,2.0,3.0,88,0.00,,---,0.00,VWS V14.01,2013-08-24 09:50:00,
2013-08-24 05:55:00,66.5,62.8,30.17,NE,51,3.0,4.0,88,0.00,,---,0.00,VWS V14.01,2013-08-24 09:55:00,
2013-08-24 06:00:00,66.5,62.8,30.17,NE,52,2.0,2.0,88,0.00,,---,0.00,VWS V14.01,2013-08-24 10:00:00,
2013-08-24 06:05:00,66.4,63.1,30.17,NE,49,2.0,2.0,89,0.00,,---,0.00,VWS V14.01,2013-08-24 10:05:00,
2013-08-24 06:10:00,66.4,63.1,30.18,NE,50,3.0,3.0,89,0.00,,---,0.00,VWS V14.01,2013-08-24 10:10:00,
2013-08-24 06:15:00,66.3,63.0,30.18,NNE,29,4.0,4.0,89,0.00,,---,0.00,VWS V14.01,2013-08-24 10:15:00,
2013-08-24 06:20:00,66.1,62.8,30.18,NE,51,3.0,3.0,89,0.00,,---,0.00,VWS V14.01,2013-08-24 10:20:00,
2013-08-24 06:25:00,66.0,62.7,30.18,NE,51,5.0,6.0,89,0.00,,---,0.00,VWS V14.01,2013-08-24 10:25:00,
2013-08-24 06:30:00,65.9,62.9,30.18,NE,51,2.0,2.0,90,0.00,,---,0.00,VWS V14.01,2013-08-24 10:30:00,
2013-08-24 06:35:00,65.7,62.7,30.18,NNE,33,3.0,4.0,90,0.00,,---,0.00,VWS V14.01,2013-08-24 10:35:00,
2013-08-24 06:40:00,65.6,62.9,30.19,NE,39,2.0,2.0,91,0.00,,---,0.00,VWS V14.01,2013-08-24 10:40:00,
2013-08-24 06:45:00,65.5,62.8,30.18,NNE,28,2.0,3.0,91,0.00,,---,0.00,VWS V14.01,2013-08-24 10:45:00,
2013-08-24 06:50:00,65.5,62.8,30.19,ENE,67,4.0,4.0,91,0.00,,---,0.00,VWS V14.01,2013-08-24 10:50:00,
2013-08-24 06:55:00,65.5,62.8,30.19,NE,47,3.0,3.0,91,0.00,,---,0.00,VWS V14.01,2013-08-24 10:55:00,
2013-08-24 07:00:00,65.5,63.1,30.19,ENE,57,2.0,3.0,92,0.00,,---,0.00,VWS V14.01,2013-08-24 11:00:00,
2013-08-24 07:05:00,65.5,63.1,30.19,NE,51,5.0,5.0,92,0.00,,---,0.00,VWS V14.01,2013-08-24 11:05:00,
2013-08-24 07:10:00,65.6,63.2,30.19,NE,46,2.0,3.0,92,0.00,,---,0.00,VWS V14.01,2013-08-24 11:10:00,
2013-08-24 07:15:00,65.6,63.2,30.20,ENE,59,2.0,3.0,92,0.00,,---,0.00,VWS V14.01,2013-08-24 11:15:00,
2013-08-24 07:20:00,65.8,63.1,30.20,NE,38,2.0,3.0,91,0.00,,---,0.00,VWS V14.01,2013-08-24 11:20:00,
2013-08-24 07:25:00,66.1,63.4,30.20,NE,51,2.0,3.0,91,0.00,,---,0.00,VWS V14.01,2013-08-24 11:25:00,
2013-08-24 07:30:00,66.3,63.6,30.20,ENE,62,4.0,5.0,91,0.00,,---,0.00,VWS V14.01,2013-08-24 11:30:00,
2013-08-24 07:35:00,66.4,63.4,30.20,ENE,57,2.0,5.0,90,0.00,,---,0.00,VWS V14.01,2013-08-24 11:35:00,
2013-08-24 07:40:00,66.6,63.6,30.20,NE,39,3.0,3.0,90,0.00,,---,0.00,VWS V14.01,2013-08-24 11:40:00,
2013-08-24 07:45:00,66.9,63.6,30.20,NNE,31,2.0,3.0,89,0.00,,---,0.00,VWS V14.01,2013-08-24 11:45:00,
2013-08-24 07:50:00,67.2,63.8,30.20,NE,48,3.0,5.0,89,0.00,,---,0.00,VWS V14.01,2013-08-24 11:50:00,
2013-08-24 07:54:00,67.3,63.3,30.20,NE,43,6.0,9.0,87,0.00,,---,0.00,VWS V14.01,2013-08-24 11:54:00,
2013-08-24 07:59:00,67.5,63.5,30.20,ENE,57,8.0,8.0,87,0.00,,---,0.00,VWS V14.01,2013-08-24 11:59:00,
2013-08-24 08:04:00,67.6,63.3,30.20,ENE,57,10.0,10.0,86,0.00,,---,0.00,VWS V14.01,2013-08-24 12:04:00,
2013-08-24 08:09:00,67.7,63.4,30.20,ENE,61,2.0,4.0,86,0.00,,---,0.00,VWS V14.01,2013-08-24 12:09:00,
2013-08-24 08:14:00,67.9,63.2,30.21,NE,55,4.0,9.0,85,0.00,,---,0.00,VWS V14.01,2013-08-24 12:14:00,
2013-08-24 08:19:00,68.1,63.4,30.21,NE,48,3.0,5.0,85,0.00,,---,0.00,VWS V14.01,2013-08-24 12:19:00,
2013-08-24 08:24:00,68.4,63.4,30.21,NNE,30,2.0,6.0,84,0.00,,---,0.00,VWS V14.01,2013-08-24 12:24:00,
2013-08-24 08:29:00,68.5,63.5,30.22,NE,51,5.0,9.0,84,0.00,,---,0.00,VWS V14.01,2013-08-24 12:29:00,
2013-08-24 08:34:00,68.8,63.4,30.22,NE,52,6.0,6.0,83,0.00,,---,0.00,VWS V14.01,2013-08-24 12:34:00,
2013-08-24 08:39:00,69.1,63.7,30.22,NE,48,5.0,7.0,83,0.00,,---,0.00,VWS V14.01,2013-08-24 12:39:00,
2013-08-24 08:44:00,69.2,63.5,30.22,NE,48,4.0,6.0,82,0.00,,---,0.00,VWS V14.01,2013-08-24 12:44:00,
2013-08-24 08:49:00,69.3,63.2,30.22,ENE,59,5.0,7.0,81,0.00,,---,0.00,VWS V14.01,2013-08-24 12:49:00,
2013-08-24 08:54:00,69.5,63.4,30.22,NE,45,8.0,8.0,81,0.00,,---,0.00,VWS V14.01,2013-08-24 12:54:00,
2013-08-24 08:59:00,69.7,63.6,30.23,ENE,57,4.0,6.0,81,0.00,,---,0.00,VWS V14.01,2013-08-24 12:59:00,
2013-08-24 09:04:00,70.0,63.5,30.23,NE,49,4.0,4.0,80,0.00,,---,0.00,VWS V14.01,2013-08-24 13:04:00,
2013-08-24 09:09:00,70.2,63.0,30.23,ENE,70,5.0,5.0,78,0.00,,---,0.00,VWS V14.01,2013-08-24 13:09:00,
2013-08-24 09:14:00,70.3,63.5,30.23,ENE,61,4.0,7.0,79,0.00,,---,0.00,VWS V14.01,2013-08-24 13:14:00,
2013-08-24 09:19:00,70.5,63.7,30.23,East,84,6.0,9.0,79,0.00,,---,0.00,VWS V14.01,2013-08-24 13:19:00,
2013-08-24 09:24:00,70.9,63.3,30.24,East,80,6.0,6.0,77,0.00,,---,0.00,VWS V14.01,2013-08-24 13:24:00,
2013-08-24 09:29:00,71.0,63.4,30.23,ENE,59,2.0,5.0,77,0.00,,---,0.00,VWS V14.01,2013-08-24 13:29:00,
2013-08-24 09:34:00,71.2,63.3,30.24,NE,47,2.0,4.0,76,0.00,,---,0.00,VWS V14.01,2013-08-24 13:34:00,
2013-08-24 09:39:00,71.3,63.3,30.24,NE,52,4.0,5.0,76,0.00,,---,0.00,VWS V14.01,2013-08-24 13:39:00,
2013-08-24 09:44:00,71.6,63.6,30.24,NE,52,5.0,7.0,76,0.00,,---,0.00,VWS V14.01,2013-08-24 13:44:00,
2013-08-24 09:49:00,71.7,63.4,30.24,NE,51,2.0,5.0,75,0.00,,---,0.00,VWS V14.01,2013-08-24 13:49:00,
2013-08-24 09:54:00,72.0,63.3,30.24,ENE,69,7.0,10.0,74,0.00,,---,0.00,VWS V14.01,2013-08-24 13:54:00,
2013-08-24 09:59:00,72.2,63.5,30.24,East,89,9.0,10.0,74,0.00,,---,0.00,VWS V14.01,2013-08-24 13:59:00,
2013-08-24 10:04:00,72.2,63.1,30.24,NE,53,3.0,6.0,73,0.00,,---,0.00,VWS V14.01,2013-08-24 14:04:00,
2013-08-24 10:09:00,72.3,63.2,30.24,NE,51,4.0,5.0,73,0.00,,---,0.00,VWS V14.01,2013-08-24 14:09:00,
2013-08-24 10:14:00,72.7,63.9,30.25,ENE,58,5.0,5.0,74,0.00,,---,0.00,VWS V14.01,2013-08-24 14:14:00,
2013-08-24 10:19:00,72.8,63.3,30.25,ENE,61,10.0,12.0,72,0.00,,---,0.00,VWS V14.01,2013-08-24 14:19:00,
2013-08-24 10:24:00,72.9,62.5,30.25,NE,44,4.0,5.0,70,0.00,,---,0.00,VWS V14.01,2013-08-24 14:24:00,
2013-08-24 10:29:00,73.2,62.4,30.25,ENE,73,7.0,8.0,69,0.00,,---,0.00,VWS V14.01,2013-08-24 14:29:00,
2013-08-24 10:34:00,73.2,62.8,30.25,NE,38,4.0,5.0,70,0.00,,---,0.00,VWS V14.01,2013-08-24 14:34:00,
2013-08-24 10:39:00,73.5,62.7,30.25,ENE,58,3.0,5.0,69,0.00,,---,0.00,VWS V14.01,2013-08-24 14:39:00,
2013-08-24 10:44:00,74.0,63.2,30.25,ENE,67,7.0,7.0,69,0.00,,---,0.00,VWS V14.01,2013-08-24 14:44:00,
2013-08-24 10:49:00,74.2,63.0,30.25,ENE,71,5.0,7.0,68,0.00,,---,0.00,VWS V14.01,2013-08-24 14:49:00,
2013-08-24 10:54:00,74.5,62.8,30.25,ESE,109,10.0,10.0,67,0.00,,---,0.00,VWS V14.01,2013-08-24 14:54:00,
2013-08-24 10:59:00,74.6,62.9,30.25,East,80,8.0,9.0,67,0.00,,---,0.00,VWS V14.01,2013-08-24 14:59:00,
2013-08-24 11:04:00,74.9,62.3,30.25,ENE,73,4.0,8.0,65,0.00,,---,0.00,VWS V14.01,2013-08-24 15:04:00,
2013-08-24 11:09:00,75.3,62.7,30.25,ENE,67,3.0,3.0,65,0.00,,---,0.00,VWS V14.01,2013-08-24 15:09:00,
2013-08-24 11:14:00,75.6,62.6,30.25,ENE,67,8.0,10.0,64,0.00,,---,0.00,VWS V14.01,2013-08-24 15:14:00,
2013-08-24 11:19:00,75.3,62.7,30.25,NE,55,8.0,8.0,65,0.00,,---,0.00,VWS V14.01,2013-08-24 15:19:00,
2013-08-24 11:24:00,75.4,62.4,30.25,ENE,67,7.0,9.0,64,0.00,,---,0.00,VWS V14.01,2013-08-24 15:24:00,
2013-08-24 11:29:00,75.8,62.3,30.25,East,80,6.0,7.0,63,0.00,,---,0.00,VWS V14.01,2013-08-24 15:29:00,
2013-08-24 11:34:00,75.6,61.2,30.25,NE,54,7.0,8.0,61,0.00,,---,0.00,VWS V14.01,2013-08-24 15:34:00,
2013-08-24 11:39:00,75.6,61.2,30.25,East,82,15.0,15.0,61,0.00,,---,0.00,VWS V14.01,2013-08-24 15:39:00,
2013-08-24 11:44:00,75.7,61.3,30.25,ENE,76,9.0,12.0,61,0.00,,---,0.00,VWS V14.01,2013-08-24 15:44:00,
2013-08-24 11:49:00,75.9,61.5,30.25,NE,51,8.0,15.0,61,0.00,,---,0.00,VWS V14.01,2013-08-24 15:49:00,
2013-08-24 11:54:00,76.1,61.7,30.25,East,81,10.0,10.0,61,0.00,,---,0.00,VWS V14.01,2013-08-24 15:54:00,
2013-08-24 11:59:00,76.6,61.7,30.25,NE,48,5.0,8.0,60,0.00,,---,0.00,VWS V14.01,2013-08-24 15:59:00,
2013-08-24 12:04:00,76.7,61.8,30.25,ENE,74,10.0,13.0,60,0.00,,---,0.00,VWS V14.01,2013-08-24 16:04:00,
2013-08-24 12:09:00,76.6,60.7,30.25,ENE,74,7.0,8.0,58,0.00,,---,0.00,VWS V14.01,2013-08-24 16:09:00,
2013-08-24 12:14:00,76.6,61.7,30.25,NE,54,3.0,7.0,60,0.00,,---,0.00,VWS V14.01,2013-08-24 16:14:00,
2013-08-24 12:19:00,77.2,62.7,30.25,ENE,70,8.0,11.0,61,0.00,,---,0.00,VWS V14.01,2013-08-24 16:19:00,
2013-08-24 12:24:00,77.3,61.9,30.26,ENE,76,9.0,9.0,59,0.00,,---,0.00,VWS V14.01,2013-08-24 16:24:00,
2013-08-24 12:29:00,77.4,61.5,30.25,ENE,61,5.0,5.0,58,0.00,,---,0.00,VWS V14.01,2013-08-24 16:29:00,
2013-08-24 12:34:00,77.5,61.6,30.25,ENE,76,12.0,12.0,58,0.00,,---,0.00,VWS V14.01,2013-08-24 16:34:00,
2013-08-24 12:39:00,77.7,61.3,30.25,ENE,63,4.0,8.0,57,0.00,,---,0.00,VWS V14.01,2013-08-24 16:39:00,
2013-08-24 12:44:00,77.9,62.4,30.25,ENE,63,4.0,5.0,59,0.00,,---,0.00,VWS V14.01,2013-08-24 16:44:00,
2013-08-24 12:49:00,78.0,62.5,30.25,ENE,57,7.0,9.0,59,0.00,,---,0.00,VWS V14.01,2013-08-24 16:49:00,
2013-08-24 12:54:00,78.1,62.1,30.26,East,80,9.0,13.0,58,0.00,,---,0.00,VWS V14.01,2013-08-24 16:54:00,
2013-08-24 12:59:00,78.0,61.5,30.25,ENE,72,9.0,9.0,57,0.00,,---,0.00,VWS V14.01,2013-08-24 16:59:00,
2013-08-24 13:04:00,78.1,60.6,30.25,NE,46,6.0,7.0,55,0.00,,---,0.00,VWS V14.01,2013-08-24 17:04:00,
2013-08-24 13:09:00,78.1,61.6,30.25,NNE,31,6.0,7.0,57,0.00,,---,0.00,VWS V14.01,2013-08-24 17:09:00,
2013-08-24 13:14:00,78.3,61.3,30.25,ENE,63,9.0,11.0,56,0.00,,---,0.00,VWS V14.01,2013-08-24 17:14:00,
2013-08-24 13:19:00,78.3,61.3,30.25,ENE,74,12.0,14.0,56,0.00,,---,0.00,VWS V14.01,2013-08-24 17:19:00,
2013-08-24 13:24:00,78.5,60.5,30.25,ENE,76,10.0,11.0,54,0.00,,---,0.00,VWS V14.01,2013-08-24 17:24:00,
2013-08-24 13:29:00,78.7,61.2,30.25,NE,53,5.0,9.0,55,0.00,,---,0.00,VWS V14.01,2013-08-24 17:29:00,
2013-08-24 13:34:00,79.0,61.5,30.25,ENE,67,14.0,14.0,55,0.00,,---,0.00,VWS V14.01,2013-08-24 17:34:00,
2013-08-24 13:39:00,79.4,60.8,30.25,NNE,24,7.0,10.0,53,0.00,,---,0.00,VWS V14.01,2013-08-24 17:39:00,
2013-08-24 13:44:00,79.3,60.7,30.25,ENE,78,7.0,7.0,53,0.00,,---,0.00,VWS V14.01,2013-08-24 17:44:00,
2013-08-24 13:49:00,79.4,60.3,30.25,NE,55,3.0,5.0,52,0.00,,---,0.00,VWS V14.01,2013-08-24 17:49:00,
2013-08-24 13:54:00,79.9,60.7,30.25,ENE,76,7.0,7.0,52,0.00,,---,0.00,VWS V14.01,2013-08-24 17:54:00,
2013-08-24 13:59:00,79.9,60.7,30.25,ENE,74,7.0,9.0,52,0.00,,---,0.00,VWS V14.01,2013-08-24 17:59:00,
2013-08-24 14:04:00,79.6,61.0,30.25,ENE,67,5.0,5.0,53,0.00,,---,0.00,VWS V14.01,2013-08-24 18:04:00,
2013-08-24 14:09:00,79.4,60.8,30.25,ENE,67,8.0,10.0,53,0.00,,---,0.00,VWS V14.01,2013-08-24 18:09:00,
2013-08-24 14:14:00,79.5,60.3,30.25,NNE,30,6.0,8.0,52,0.00,,---,0.00,VWS V14.01,2013-08-24 18:14:00,
2013-08-24 14:19:00,79.4,59.7,30.25,NE,44,6.0,7.0,51,0.00,,---,0.00,VWS V14.01,2013-08-24 18:19:00,
2013-08-24 14:24:00,79.7,60.5,30.25,ENE,76,7.0,7.0,52,0.00,,---,0.00,VWS V14.01,2013-08-24 18:24:00,
2013-08-24 14:29:00,80.0,60.3,30.25,ENE,67,7.0,7.0,51,0.00,,---,0.00,VWS V14.01,2013-08-24 18:29:00,
2013-08-24 14:34:00,80.6,60.3,30.25,ENE,68,5.0,8.0,50,0.00,,---,0.00,VWS V14.01,2013-08-24 18:34:00,
2013-08-24 14:39:00,80.7,60.3,30.25,East,85,9.0,9.0,50,0.00,,---,0.00,VWS V14.01,2013-08-24 18:39:00,
2013-08-24 14:44:00,80.4,60.1,30.25,East,94,6.0,7.0,50,0.00,,---,0.00,VWS V14.01,2013-08-24 18:44:00,
2013-08-24 14:49:00,80.8,61.5,30.24,ENE,61,9.0,10.0,52,0.00,,---,0.00,VWS V14.01,2013-08-24 18:49:00,
2013-08-24 14:54:00,80.7,59.8,30.24,NE,36,3.0,3.0,49,0.00,,---,0.00,VWS V14.01,2013-08-24 18:54:00,
2013-08-24 14:59:00,80.6,59.7,30.24,East,82,3.0,3.0,49,0.00,,---,0.00,VWS V14.01,2013-08-24 18:59:00,
2013-08-24 15:04:00,80.6,59.7,30.24,NNE,28,5.0,5.0,49,0.00,,---,0.00,VWS V14.01,2013-08-24 19:04:00,
2013-08-24 15:09:00,80.2,59.9,30.24,ENE,63,8.0,9.0,50,0.00,,---,0.00,VWS V14.01,2013-08-24 19:09:00,
2013-08-24 15:14:00,80.0,60.3,30.24,East,87,6.0,7.0,51,0.00,,---,0.00,VWS V14.01,2013-08-24 19:14:00,
2013-08-24 15:19:00,80.3,59.4,30.24,ENE,59,3.0,5.0,49,0.00,,---,0.00,VWS V14.01,2013-08-24 19:19:00,
2013-08-24 15:24:00,80.7,59.8,30.24,ENE,59,9.0,9.0,49,0.00,,---,0.00,VWS V14.01,2013-08-24 19:24:00,
2013-08-24 15:29:00,79.9,59.6,30.24,ENE,76,7.0,9.0,50,0.00,,---,0.00,VWS V14.01,2013-08-24 19:29:00,
2013-08-24 15:34:00,79.3,59.1,30.24,ENE,61,8.0,8.0,50,0.00,,---,0.00,VWS V14.01,2013-08-24 19:34:00,
2013-08-24 15:39:00,79.8,59.5,30.24,ENE,61,7.0,8.0,50,0.00,,---,0.00,VWS V14.01,2013-08-24 19:39:00,
2013-08-24 15:44:00,80.1,58.7,30.24,NE,52,6.0,8.0,48,0.00,,---,0.00,VWS V14.01,2013-08-24 19:44:00,
2013-08-24 15:49:00,80.5,59.0,30.24,ENE,64,4.0,5.0,48,0.00,,---,0.00,VWS V14.01,2013-08-24 19:49:00,
2013-08-24 15:54:00,81.0,58.9,30.24,ENE,69,8.0,8.0,47,0.00,,---,0.00,VWS V14.01,2013-08-24 19:54:00,
2013-08-24 15:59:00,80.9,59.4,30.24,ENE,78,7.0,7.0,48,0.00,,---,0.00,VWS V14.01,2013-08-24 19:59:00,
2013-08-24 16:04:00,81.3,60.9,30.24,ENE,65,9.0,9.0,50,0.00,,---,0.00,VWS V14.01,2013-08-24 20:04:00,
2013-08-24 16:09:00,81.0,60.6,30.24,ENE,61,4.0,5.0,50,0.00,,---,0.00,VWS V14.01,2013-08-24 20:09:00,
2013-08-24 16:14:00,80.9,61.1,30.24,East,86,7.0,9.0,51,0.00,,---,0.00,VWS V14.01,2013-08-24 20:14:00,
2013-08-24 16:19:00,80.6,58.5,30.24,ENE,73,9.0,10.0,47,0.00,,---,0.00,VWS V14.01,2013-08-24 20:19:00,
2013-08-24 16:24:00,80.1,58.1,30.24,ENE,63,5.0,9.0,47,0.00,,---,0.00,VWS V14.01,2013-08-24 20:24:00,
2013-08-24 16:29:00,80.4,59.5,30.24,ENE,61,5.0,5.0,49,0.00,,---,0.00,VWS V14.01,2013-08-24 20:29:00,
2013-08-24 16:34:00,80.7,60.3,30.24,ENE,69,8.0,8.0,50,0.00,,---,0.00,VWS V14.01,2013-08-24 20:34:00,
2013-08-24 16:39:00,81.0,59.5,30.24,ENE,63,7.0,10.0,48,0.00,,---,0.00,VWS V14.01,2013-08-24 20:39:00,
2013-08-24 16:44:00,81.1,60.2,30.24,ENE,57,4.0,7.0,49,0.00,,---,0.00,VWS V14.01,2013-08-24 20:44:00,
2013-08-24 16:49:00,81.1,59.6,30.24,East,85,10.0,11.0,48,0.00,,---,0.00,VWS V14.01,2013-08-24 20:49:00,
2013-08-24 16:54:00,81.0,60.1,30.24,ENE,61,4.0,11.0,49,0.00,,---,0.00,VWS V14.01,2013-08-24 20:54:00,
2013-08-24 16:59:00,80.5,58.4,30.24,ENE,61,7.0,10.0,47,0.00,,---,0.00,VWS V14.01,2013-08-24 20:59:00,
2013-08-24 17:04:00,80.4,59.5,30.24,ENE,73,5.0,8.0,49,0.00,,---,0.00,VWS V14.01,2013-08-24 21:04:00,
2013-08-24 17:09:00,80.7,60.3,30.24,ENE,74,2.0,5.0,50,0.00,,---,0.00,VWS V14.01,2013-08-24 21:09:00,
2013-08-24 17:14:00,80.7,59.8,30.24,NE,40,4.0,9.0,49,0.00,,---,0.00,VWS V14.01,2013-08-24 21:14:00,
2013-08-24 17:18:00,80.8,59.3,30.24,ENE,61,3.0,7.0,48,0.00,,---,0.00,VWS V14.01,2013-08-24 21:18:00,
2013-08-24 17:23:00,80.9,59.4,30.24,ENE,63,5.0,5.0,48,0.00,,---,0.00,VWS V14.01,2013-08-24 21:23:00,
2013-08-24 17:28:00,80.9,59.4,30.24,ENE,63,4.0,9.0,48,0.00,,---,0.00,VWS V14.01,2013-08-24 21:28:00,
2013-08-24 17:33:00,81.0,59.5,30.24,East,91,9.0,10.0,48,0.00,,---,0.00,VWS V14.01,2013-08-24 21:33:00,
2013-08-24 17:38:00,80.9,59.4,30.24,East,80,10.0,14.0,48,0.00,,---,0.00,VWS V14.01,2013-08-24 21:38:00,
2013-08-24 17:43:00,80.6,58.5,30.24,ENE,76,9.0,10.0,47,0.00,,---,0.00,VWS V14.01,2013-08-24 21:43:00,
2013-08-24 17:48:00,80.4,58.9,30.24,ENE,70,5.0,7.0,48,0.00,,---,0.00,VWS V14.01,2013-08-24 21:48:00,
2013-08-24 17:53:00,80.5,59.6,30.24,ENE,69,1.0,5.0,49,0.00,,---,0.00,VWS V14.01,2013-08-24 21:53:00,
2013-08-24 17:58:00,80.5,59.6,30.24,ENE,61,3.0,5.0,49,0.00,,---,0.00,VWS V14.01,2013-08-24 21:58:00,
2013-08-24 18:03:00,80.5,60.7,30.24,ENE,61,4.0,4.0,51,0.00,,---,0.00,VWS V14.01,2013-08-24 22:03:00,
2013-08-24 18:08:00,80.6,60.3,30.24,ENE,72,7.0,9.0,50,0.00,,---,0.00,VWS V14.01,2013-08-24 22:08:00,
2013-08-24 18:13:00,80.3,60.0,30.24,ENE,77,7.0,7.0,50,0.00,,---,0.00,VWS V14.01,2013-08-24 22:13:00,
2013-08-24 18:18:00,79.9,59.0,30.24,ENE,61,7.0,7.0,49,0.00,,---,0.00,VWS V14.01,2013-08-24 22:18:00,
2013-08-24 18:23:00,79.8,59.5,30.24,East,82,7.0,7.0,50,0.00,,---,0.00,VWS V14.01,2013-08-24 22:23:00,
2013-08-24 18:28:00,79.7,59.4,30.24,NE,54,4.0,5.0,50,0.00,,---,0.00,VWS V14.01,2013-08-24 22:28:00,
2013-08-24 18:33:00,79.7,58.9,30.24,ENE,71,7.0,10.0,49,0.00,,---,0.00,VWS V14.01,2013-08-24 22:33:00,
2013-08-24 18:38:00,79.6,58.8,30.24,ENE,74,4.0,6.0,49,0.00,,---,0.00,VWS V14.01,2013-08-24 22:38:00,
2013-08-24 18:43:00,79.5,58.7,30.24,ENE,76,4.0,5.0,49,0.00,,---,0.00,VWS V14.01,2013-08-24 22:43:00,
2013-08-24 18:48:00,79.4,59.2,30.24,ENE,77,4.0,4.0,50,0.00,,---,0.00,VWS V14.01,2013-08-24 22:48:00,
2013-08-24 18:53:00,79.3,59.1,30.24,ENE,74,3.0,5.0,50,0.00,,---,0.00,VWS V14.01,2013-08-24 22:53:00,
2013-08-24 18:58:00,79.2,60.1,30.24,ENE,76,3.0,4.0,52,0.00,,---,0.00,VWS V14.01,2013-08-24 22:58:00,
2013-08-24 19:03:00,79.2,60.1,30.24,East,80,2.0,3.0,52,0.00,,---,0.00,VWS V14.01,2013-08-24 23:03:00,
2013-08-24 19:08:00,79.0,60.4,30.24,ENE,60,4.0,4.0,53,0.00,,---,0.00,VWS V14.01,2013-08-24 23:08:00,
2013-08-24 19:13:00,78.8,60.2,30.25,East,86,2.0,3.0,53,0.00,,---,0.00,VWS V14.01,2013-08-24 23:13:00,
2013-08-24 19:18:00,78.7,60.7,30.24,ENE,71,3.0,3.0,54,0.00,,---,0.00,VWS V14.01,2013-08-24 23:18:00,
2013-08-24 19:23:00,78.3,60.3,30.25,ENE,66,2.0,2.0,54,0.00,,---,0.00,VWS V14.01,2013-08-24 23:23:00,
2013-08-24 19:28:00,77.8,60.9,30.25,ENE,76,2.0,2.0,56,0.00,,---,0.00,VWS V14.01,2013-08-24 23:28:00,
2013-08-24 19:33:00,77.4,60.5,30.25,ENE,65,2.0,3.0,56,0.00,,---,0.00,VWS V14.01,2013-08-24 23:33:00,
2013-08-24 19:38:00,77.0,60.6,30.25,ENE,64,2.0,2.0,57,0.00,,---,0.00,VWS V14.01,2013-08-24 23:38:00,
2013-08-24 19:43:00,76.6,60.7,30.25,ENE,69,2.0,3.0,58,0.00,,---,0.00,VWS V14.01,2013-08-24 23:43:00,
2013-08-24 19:48:00,76.3,60.5,30.26,ENE,68,2.0,3.0,58,0.00,,---,0.00,VWS V14.01,2013-08-24 23:48:00,
2013-08-24 19:53:00,75.9,61.0,30.25,ENE,67,2.0,2.0,60,0.00,,---,0.00,VWS V14.01,2013-08-24 23:53:00,
2013-08-24 19:58:00,75.6,61.2,30.26,ENE,67,2.0,2.0,61,0.00,,---,0.00,VWS V14.01,2013-08-24 23:58:00,
2013-08-24 20:03:00,75.3,60.9,30.26,ENE,67,2.0,2.0,61,0.00,,---,0.00,VWS V14.01,2013-08-25 00:03:00,
2013-08-24 20:08:00,75.1,61.2,30.26,ENE,61,2.0,2.0,62,0.00,,---,0.00,VWS V14.01,2013-08-25 00:08:00,
2013-08-24 20:13:00,75.0,61.1,30.26,ENE,67,3.0,3.0,62,0.00,,---,0.00,VWS V14.01,2013-08-25 00:13:00,
2013-08-24 20:18:00,74.8,60.9,30.26,ENE,67,3.0,3.0,62,0.00,,---,0.00,VWS V14.01,2013-08-25 00:18:00,
2013-08-24 20:23:00,74.6,60.7,30.26,ENE,70,4.0,4.0,62,0.00,,---,0.00,VWS V14.01,2013-08-25 00:23:00,
2013-08-24 20:28:00,74.4,60.5,30.27,ENE,68,2.0,2.0,62,0.00,,---,0.00,VWS V14.01,2013-08-25 00:28:00,
2013-08-24 20:33:00,74.3,60.5,30.27,ENE,74,2.0,3.0,62,0.00,,---,0.00,VWS V14.01,2013-08-25 00:33:00,
2013-08-24 20:38:00,74.2,60.4,30.27,ENE,76,3.0,3.0,62,0.00,,---,0.00,VWS V14.01,2013-08-25 00:38:00,
2013-08-24 20:43:00,74.0,60.6,30.27,ENE,74,2.0,2.0,63,0.00,,---,0.00,VWS V14.01,2013-08-25 00:43:00,
2013-08-24 20:48:00,73.9,60.5,30.27,ENE,75,3.0,3.0,63,0.00,,---,0.00,VWS V14.01,2013-08-25 00:48:00,
2013-08-24 20:53:00,73.7,60.3,30.27,ENE,78,2.0,3.0,63,0.00,,---,0.00,VWS V14.01,2013-08-25 00:53:00,
2013-08-24 20:58:00,73.5,60.6,30.27,ENE,68,3.0,3.0,64,0.00,,---,0.00,VWS V14.01,2013-08-25 00:58:00,
2013-08-24 21:03:00,73.3,60.4,30.28,ENE,76,2.0,2.0,64,0.00,,---,0.00,VWS V14.01,2013-08-25 01:03:00,
2013-08-24 21:08:00,73.1,60.7,30.28,ENE,76,3.0,3.0,65,0.00,,---,0.00,VWS V14.01,2013-08-25 01:08:00,
2013-08-24 21:13:00,72.9,60.5,30.29,East,86,2.0,2.0,65,0.00,,---,0.00,VWS V14.01,2013-08-25 01:13:00,
2013-08-24 21:18:00,72.7,60.7,30.29,East,80,3.0,5.0,66,0.00,,---,0.00,VWS V14.01,2013-08-25 01:18:00,
2013-08-24 21:23:00,72.4,60.8,30.29,East,81,5.0,5.0,67,0.00,,---,0.00,VWS V14.01,2013-08-25 01:23:00,
2013-08-24 21:28:00,72.0,61.3,30.29,East,84,3.0,3.0,69,0.00,,---,0.00,VWS V14.01,2013-08-25 01:28:00,
2013-08-24 21:33:00,71.7,61.4,30.29,East,87,2.0,2.0,70,0.00,,---,0.00,VWS V14.01,2013-08-25 01:33:00,
2013-08-24 21:38:00,71.4,61.1,30.29,East,88,3.0,3.0,70,0.00,,---,0.00,VWS V14.01,2013-08-25 01:38:00,
2013-08-24 21:43:00,71.2,61.3,30.30,East,91,2.0,2.0,71,0.00,,---,0.00,VWS V14.01,2013-08-25 01:43:00,
2013-08-24 21:48:00,71.1,61.2,30.30,East,86,2.0,2.0,71,0.00,,---,0.00,VWS V14.01,2013-08-25 01:48:00,
2013-08-24 21:53:00,71.0,61.5,30.30,East,85,2.0,2.0,72,0.00,,---,0.00,VWS V14.01,2013-08-25 01:53:00,
2013-08-24 21:58:00,71.0,61.5,30.30,East,87,2.0,2.0,72,0.00,,---,0.00,VWS V14.01,2013-08-25 01:58:00,
2013-08-24 22:03:00,70.9,61.4,30.30,East,84,2.0,3.0,72,0.00,,---,0.00,VWS V14.01,2013-08-25 02:03:00,
2013-08-24 22:08:00,70.8,61.7,30.30,East,81,2.0,3.0,73,0.00,,---,0.00,VWS V14.01,2013-08-25 02:08:00,
2013-08-24 22:13:00,70.8,61.7,30.30,East,88,2.0,2.0,73,0.00,,---,0.00,VWS V14.01,2013-08-25 02:13:00,
2013-08-24 22:18:00,70.7,61.6,30.30,East,85,1.0,3.0,73,0.00,,---,0.00,VWS V14.01,2013-08-25 02:18:00,
2013-08-24 22:23:00,70.5,61.8,30.30,East,82,2.0,2.0,74,0.00,,---,0.00,VWS V14.01,2013-08-25 02:23:00,
2013-08-24 22:28:00,70.4,62.1,30.30,East,82,2.0,2.0,75,0.00,,---,0.00,VWS V14.01,2013-08-25 02:28:00,
2013-08-24 22:33:00,70.3,62.0,30.31,ENE,76,2.0,2.0,75,0.00,,---,0.00,VWS V14.01,2013-08-25 02:33:00,
2013-08-24 22:38:00,70.2,62.3,30.31,East,81,3.0,3.0,76,0.00,,---,0.00,VWS V14.01,2013-08-25 02:38:00,
2013-08-24 22:42:00,70.1,62.2,30.31,ENE,76,2.0,2.0,76,0.00,,---,0.00,VWS V14.01,2013-08-25 02:42:00,
2013-08-24 22:47:00,69.9,62.4,30.31,ENE,77,2.0,2.0,77,0.00,,---,0.00,VWS V14.01,2013-08-25 02:47:00,
2013-08-24 22:52:00,69.9,62.4,30.31,ENE,74,2.0,2.0,77,0.00,,---,0.00,VWS V14.01,2013-08-25 02:52:00,
2013-08-24 22:57:00,69.8,62.3,30.31,East,82,2.0,3.0,77,0.00,,---,0.00,VWS V14.01,2013-08-25 02:57:00,
2013-08-24 23:02:00,69.7,62.5,30.31,ENE,78,2.0,3.0,78,0.00,,---,0.00,VWS V14.01,2013-08-25 03:02:00,
2013-08-24 23:07:00,69.6,62.8,30.31,East,80,2.0,3.0,79,0.00,,---,0.00,VWS V14.01,2013-08-25 03:07:00,
2013-08-24 23:12:00,69.5,62.7,30.31,ENE,76,3.0,4.0,79,0.00,,---,0.00,VWS V14.01,2013-08-25 03:12:00,
2013-08-24 23:17:00,69.3,62.9,30.32,East,92,2.0,5.0,80,0.00,,---,0.00,VWS V14.01,2013-08-25 03:17:00,
2013-08-24 23:22:00,69.2,62.8,30.32,East,85,5.0,7.0,80,0.00,,---,0.00,VWS V14.01,2013-08-25 03:22:00,
2013-08-24 23:27:00,69.0,62.6,30.32,East,94,5.0,6.0,80,0.00,,---,0.00,VWS V14.01,2013-08-25 03:27:00,
2013-08-24 23:32:00,68.9,62.8,30.32,ENE,76,3.0,5.0,81,0.00,,---,0.00,VWS V14.01,2013-08-25 03:32:00,
2013-08-24 23:37:00,68.7,62.6,30.33,East,82,3.0,3.0,81,0.00,,---,0.00,VWS V14.01,2013-08-25 03:37:00,
2013-08-24 23:42:00,68.4,62.7,30.33,ENE,74,4.0,5.0,82,0.00,,---,0.00,VWS V14.01,2013-08-25 03:42:00,
2013-08-24 23:47:00,68.3,62.9,30.33,East,85,3.0,3.0,83,0.00,,---,0.00,VWS V14.01,2013-08-25 03:47:00,
2013-08-24 23:52:00,68.2,62.8,30.33,East,80,2.0,3.0,83,0.00,,---,0.00,VWS V14.01,2013-08-25 03:52:00,
2013-08-24 23:57:00,68.1,62.8,30.33,ENE,78,3.0,3.0,83,0.00,,---,0.00,VWS V14.01,2013-08-25 03:57:00,